createdAt,value
2022-09-04T00:01:11.432Z,94.40
2022-09-04T00:03:50.974Z,94.50
2022-09-04T00:06:25.564Z,94.50
2022-09-04T00:09:04.666Z,94.40
2022-09-04T00:11:44.620Z,94.40
2022-09-04T00:14:17.620Z,94.40
2022-09-04T00:16:50.973Z,94.60
2022-09-04T00:19:26.268Z,94.80
2022-09-04T00:21:57.749Z,94.90
2022-09-04T00:24:31.084Z,95.30
2022-09-04T00:27:03.667Z,95.70
2022-09-04T00:29:36.386Z,95.80
2022-09-04T00:32:13.343Z,95.90
2022-09-04T00:34:55.442Z,95.90
2022-09-04T00:37:27.452Z,96.40
2022-09-04T00:40:01.487Z,96.90
2022-09-04T00:42:58.664Z,97.20
2022-09-04T00:45:35.315Z,97.50
2022-09-04T00:48:31.882Z,97.90
2022-09-04T00:51:16.738Z,98.30
2022-09-04T00:54:01.277Z,98.60
2022-09-04T00:57:10.083Z,98.60
2022-09-04T01:00:08.357Z,98.80
2022-09-04T01:03:00.473Z,99.40
2022-09-04T01:05:45.512Z,99.50
2022-09-04T01:08:23.525Z,99.40
2022-09-04T01:11:01.032Z,99.30
2022-09-04T01:13:38.620Z,99.10
2022-09-04T01:16:11.105Z,99.10
2022-09-04T01:18:46.056Z,99.70
2022-09-04T01:21:35.720Z,99.80
2022-09-04T01:25:16.877Z,99.70
2022-09-04T01:27:49.793Z,99.60
2022-09-04T01:30:17.867Z,99.90
2022-09-04T01:32:50.389Z,99.90
2022-09-04T01:35:24.594Z,99.90
2022-09-04T01:37:56.208Z,99.90
2022-09-04T01:40:35.322Z,99.90
2022-09-04T01:43:07.253Z,99.90
2022-09-04T01:45:43.169Z,99.90
2022-09-04T01:48:12.632Z,99.90
2022-09-04T01:50:42.964Z,99.90
2022-09-04T01:53:11.961Z,99.90
2022-09-04T01:55:47.754Z,99.90
2022-09-04T01:58:35.667Z,99.90
2022-09-04T02:02:55.310Z,99.90
2022-09-04T02:05:29.339Z,99.90
2022-09-04T02:08:04.345Z,99.90
2022-09-04T02:10:35.023Z,99.90
2022-09-04T02:13:15.370Z,99.90
2022-09-04T02:15:54.309Z,99.90
2022-09-04T02:18:36.116Z,99.90
2022-09-04T02:21:07.779Z,99.90
2022-09-04T02:25:28.533Z,99.90
2022-09-04T02:28:10.264Z,99.90
2022-09-04T02:30:39.728Z,99.90
2022-09-04T02:33:15.250Z,99.90
2022-09-04T02:35:45.911Z,99.90
2022-09-04T02:38:23.442Z,99.90
2022-09-04T02:40:56.061Z,99.90
2022-09-04T02:43:52.283Z,99.90
2022-09-04T02:47:36.825Z,99.90
2022-09-04T02:50:12.367Z,99.90
2022-09-04T02:52:52.537Z,99.90
2022-09-04T02:55:30.676Z,99.90
2022-09-04T02:58:06.179Z,99.90
2022-09-04T03:00:44.093Z,99.90
2022-09-04T03:03:15.292Z,99.90
2022-09-04T03:05:47.997Z,99.90
2022-09-04T03:08:16.949Z,99.90
2022-09-04T03:10:49.312Z,99.90
2022-09-04T03:13:24.157Z,99.90
2022-09-04T03:15:54.798Z,99.90
2022-09-04T03:18:28.362Z,99.90
2022-09-04T03:21:01.668Z,99.90
2022-09-04T03:23:38.722Z,99.90
2022-09-04T03:26:16.900Z,99.90
2022-09-04T03:28:50.960Z,99.90
2022-09-04T03:31:28.728Z,99.90
2022-09-04T03:34:01.355Z,99.90
2022-09-04T03:36:32.636Z,99.90
2022-09-04T03:39:04.514Z,99.90
2022-09-04T03:41:35.067Z,99.90
2022-09-04T03:44:07.303Z,99.90
2022-09-04T03:46:48.557Z,99.90
2022-09-04T03:49:27.190Z,99.90
2022-09-04T03:51:59.482Z,99.90
2022-09-04T03:54:38.240Z,99.90
2022-09-04T03:57:19.980Z,99.90
2022-09-04T04:00:00.548Z,99.90
2022-09-04T04:02:41.275Z,99.90
2022-09-04T04:05:31.887Z,99.90
2022-09-04T04:08:12.708Z,99.90
2022-09-04T04:10:52.715Z,99.90
2022-09-04T04:13:36.319Z,99.90
2022-09-04T04:16:24.687Z,99.90
2022-09-04T04:19:12.436Z,99.90
2022-09-04T04:21:56.067Z,99.90
2022-09-04T04:24:43.490Z,99.90
2022-09-04T04:27:28.701Z,99.90
2022-09-04T04:30:05.161Z,99.90
2022-09-04T04:32:54.156Z,99.90
2022-09-04T04:35:29.655Z,99.90
2022-09-04T04:38:11.667Z,99.90
2022-09-04T04:41:04.060Z,99.90
2022-09-04T04:43:41.331Z,99.90
2022-09-04T04:46:17.211Z,99.90
2022-09-04T04:49:13.028Z,99.90
2022-09-04T04:51:57.256Z,99.90
2022-09-04T04:54:51.366Z,99.90
2022-09-04T04:57:31.801Z,99.90
2022-09-04T05:00:08.238Z,99.90
2022-09-04T05:02:42.581Z,99.90
2022-09-04T05:05:16.122Z,99.90
2022-09-04T05:07:52.421Z,99.90
2022-09-04T05:10:29.872Z,99.90
2022-09-04T05:13:09.274Z,99.90
2022-09-04T05:16:05.019Z,99.90
2022-09-04T05:18:35.285Z,99.90
2022-09-04T05:21:12.773Z,99.90
2022-09-04T05:23:49.017Z,99.90
2022-09-04T05:26:26.779Z,99.90
2022-09-04T05:29:01.926Z,99.90
2022-09-04T05:31:39.020Z,99.90
2022-09-04T05:34:12.722Z,99.90
2022-09-04T05:36:45.898Z,99.90
2022-09-04T05:39:22.655Z,99.90
2022-09-04T05:42:09.888Z,99.90
2022-09-04T05:44:48.878Z,99.90
2022-09-04T05:47:30.556Z,99.90
2022-09-04T05:50:35.702Z,99.90
2022-09-04T05:53:20.051Z,99.90
2022-09-04T05:56:03.802Z,99.90
2022-09-04T05:58:55.508Z,99.90
2022-09-04T06:01:40.896Z,99.90
2022-09-04T06:04:32.405Z,99.90
2022-09-04T06:07:06.852Z,99.90
2022-09-04T06:09:46.496Z,99.90
2022-09-04T06:12:31.865Z,99.90
2022-09-04T06:15:22.944Z,98.60
2022-09-04T06:18:10.128Z,97.20
2022-09-04T06:21:01.645Z,96.00
2022-09-04T06:23:40.361Z,94.10
2022-09-04T06:26:16.775Z,92.70
2022-09-04T06:29:25.903Z,92.40
2022-09-04T06:32:21.131Z,93.00
2022-09-04T06:35:18.027Z,93.50
2022-09-04T06:38:00.450Z,93.80
2022-09-04T06:40:44.925Z,94.70
2022-09-04T06:43:22.827Z,94.40
2022-09-04T06:46:07.093Z,92.50
2022-09-04T06:48:49.965Z,91.20
2022-09-04T06:51:30.968Z,90.30
2022-09-04T06:54:11.634Z,88.50
2022-09-04T06:56:55.876Z,87.20
2022-09-04T06:59:43.733Z,88.80
2022-09-04T07:02:24.953Z,89.90
2022-09-04T07:05:05.800Z,88.00
2022-09-04T07:07:41.704Z,87.30
2022-09-04T07:10:12.253Z,85.00
2022-09-04T07:13:10.457Z,82.70
2022-09-04T07:15:50.059Z,78.80
2022-09-04T07:18:34.196Z,76.80
2022-09-04T07:21:14.775Z,75.10
2022-09-04T07:23:50.870Z,72.40
2022-09-04T07:26:26.900Z,69.70
2022-09-04T07:29:23.771Z,70.40
2022-09-04T07:32:01.297Z,71.30
2022-09-04T07:34:39.602Z,69.90
2022-09-04T07:37:24.979Z,68.40
2022-09-04T07:41:31.714Z,64.90
2022-09-04T07:44:06.560Z,61.10
2022-09-04T07:46:44.669Z,60.40
2022-09-04T07:49:18.449Z,59.70
2022-09-04T07:52:00.889Z,61.60
2022-09-04T07:55:04.522Z,63.50
2022-09-04T07:58:11.975Z,65.40
2022-09-04T08:00:51.082Z,68.80
2022-09-04T08:03:32.496Z,71.90
2022-09-04T08:06:11.697Z,75.50
2022-09-04T08:09:04.038Z,77.60
2022-09-04T08:11:49.559Z,76.60
2022-09-04T08:14:26.224Z,75.70
2022-09-04T08:17:20.972Z,75.40
2022-09-04T08:19:58.465Z,75.30
2022-09-04T08:22:36.019Z,75.80
2022-09-04T08:25:17.165Z,75.50
2022-09-04T08:28:17.526Z,73.80
2022-09-04T08:30:54.891Z,73.30
2022-09-04T08:34:03.302Z,74.30
2022-09-04T08:36:41.822Z,73.30
2022-09-04T08:39:14.034Z,72.70
2022-09-04T08:42:19.103Z,74.60
2022-09-04T08:45:16.077Z,72.10
2022-09-04T08:48:09.533Z,74.20
2022-09-04T08:51:20.184Z,73.20
2022-09-04T08:54:41.517Z,71.70
2022-09-04T08:57:31.230Z,72.00
2022-09-04T09:00:10.510Z,70.00
2022-09-04T09:03:11.804Z,70.40
2022-09-04T09:06:27.409Z,68.50
2022-09-04T09:09:25.422Z,69.20
2022-09-04T09:12:41.262Z,66.50
2022-09-04T09:15:42.146Z,66.60
2022-09-04T09:18:33.523Z,65.40
2022-09-04T09:21:07.888Z,63.40
2022-09-04T09:24:06.723Z,66.30
2022-09-04T09:26:38.847Z,61.60
2022-09-04T09:29:31.390Z,61.30
2022-09-04T09:32:41.236Z,59.80
2022-09-04T09:35:51.637Z,59.10
2022-09-04T09:38:45.842Z,59.20
2022-09-04T09:41:51.955Z,59.40
2022-09-04T09:44:44.439Z,58.40
2022-09-04T09:47:55.580Z,59.50
2022-09-04T09:50:38.650Z,58.20
2022-09-04T09:53:38.025Z,59.10
2022-09-04T09:56:41.112Z,57.40
2022-09-04T09:59:56.231Z,59.20
2022-09-04T10:02:52.378Z,58.60
2022-09-04T10:05:41.065Z,55.00
2022-09-04T10:08:42.145Z,56.20
2022-09-04T10:11:27.943Z,53.70
2022-09-04T10:14:34.532Z,53.50
2022-09-04T10:17:35.577Z,51.50
2022-09-04T10:20:55.336Z,51.50
2022-09-04T10:23:52.994Z,51.10
2022-09-04T10:26:44.669Z,49.50
2022-09-04T10:29:32.468Z,49.90
2022-09-04T10:32:30.002Z,50.60
2022-09-04T10:35:25.417Z,51.30
2022-09-04T10:38:32.050Z,52.50
2022-09-04T10:41:30.872Z,49.70
2022-09-04T10:44:23.237Z,50.20
2022-09-04T10:47:03.267Z,48.30
2022-09-04T10:49:56.075Z,50.40
2022-09-04T10:52:41.297Z,50.60
2022-09-04T10:55:43.966Z,50.00
2022-09-04T10:58:39.809Z,48.40
2022-09-04T11:01:43.316Z,48.10
2022-09-04T11:04:45.728Z,48.60
2022-09-04T11:07:30.329Z,49.60
2022-09-04T11:10:27.160Z,50.00
2022-09-04T11:13:42.529Z,51.10
2022-09-04T11:16:32.502Z,50.90
2022-09-04T11:19:20.017Z,51.10
2022-09-04T11:22:20.390Z,51.30
2022-09-04T11:25:39.267Z,51.60
2022-09-04T11:28:41.384Z,52.40
2022-09-04T11:31:29.874Z,50.10
2022-09-04T11:34:36.075Z,50.80
2022-09-04T11:37:29.758Z,47.70
2022-09-04T11:40:39.126Z,49.60
2022-09-04T11:43:23.758Z,49.70
2022-09-04T11:46:15.382Z,51.80
2022-09-04T11:49:26.907Z,51.00
2022-09-04T11:52:15.536Z,52.80
2022-09-04T11:55:14.221Z,52.10
2022-09-04T11:58:03.541Z,52.70
2022-09-04T12:00:40.961Z,52.50
2022-09-04T12:03:50.571Z,55.30
2022-09-04T12:06:36.479Z,55.20
2022-09-04T12:09:46.959Z,55.20
2022-09-04T12:12:43.090Z,55.40
2022-09-04T12:15:30.304Z,52.50
2022-09-04T12:18:37.934Z,52.40
2022-09-04T12:21:53.060Z,52.40
2022-09-04T12:25:12.060Z,54.20
2022-09-04T12:28:08.876Z,56.10
2022-09-04T12:30:50.806Z,57.90
2022-09-04T12:33:36.434Z,55.90
2022-09-04T12:36:33.588Z,55.70
2022-09-04T12:39:28.615Z,57.40
2022-09-04T12:42:04.928Z,59.20
2022-09-04T12:44:51.048Z,58.50
2022-09-04T12:47:33.177Z,57.50
2022-09-04T12:50:22.809Z,57.80
2022-09-04T12:53:11.044Z,58.30
2022-09-04T12:55:45.693Z,58.80
2022-09-04T12:58:26.201Z,58.40
2022-09-04T13:01:02.135Z,57.40
2022-09-04T13:03:40.120Z,57.50
2022-09-04T13:06:18.936Z,57.00
2022-09-04T13:09:04.519Z,55.50
2022-09-04T13:11:49.094Z,54.70
2022-09-04T13:14:42.178Z,55.20
2022-09-04T13:17:20.009Z,55.30
2022-09-04T13:19:55.249Z,53.70
2022-09-04T13:22:31.074Z,54.50
2022-09-04T13:25:10.465Z,52.90
2022-09-04T13:27:59.837Z,52.90
2022-09-04T13:30:30.900Z,52.80
2022-09-04T13:33:20.851Z,52.00
2022-09-04T13:36:11.238Z,51.80
2022-09-04T13:39:06.893Z,50.40
2022-09-04T13:41:59.993Z,50.70
2022-09-04T13:44:54.398Z,50.90
2022-09-04T13:47:32.724Z,51.70
2022-09-04T13:50:09.898Z,51.90
2022-09-04T13:52:42.473Z,50.80
2022-09-04T13:55:16.697Z,50.60
2022-09-04T13:57:48.560Z,51.70
2022-09-04T14:00:17.181Z,50.90
2022-09-04T14:02:47.644Z,52.00
2022-09-04T14:05:20.780Z,51.40
2022-09-04T14:07:50.763Z,52.60
2022-09-04T14:10:22.295Z,51.60
2022-09-04T14:13:10.160Z,50.60
2022-09-04T14:16:01.939Z,51.10
2022-09-04T14:18:57.874Z,52.80
2022-09-04T14:21:37.508Z,52.50
2022-09-04T14:24:18.334Z,52.60
2022-09-04T14:26:52.536Z,50.40
2022-09-04T14:29:29.179Z,51.40
2022-09-04T14:32:10.966Z,52.30
2022-09-04T14:34:50.245Z,51.30
2022-09-04T14:37:36.133Z,52.20
2022-09-04T14:40:10.037Z,52.20
2022-09-04T14:42:48.139Z,51.60
2022-09-04T14:45:28.340Z,51.70
2022-09-04T14:48:00.327Z,51.80
2022-09-04T14:50:31.273Z,49.90
2022-09-04T14:53:06.922Z,50.80
2022-09-04T14:55:40.159Z,50.60
2022-09-04T14:58:19.552Z,50.20
2022-09-04T15:01:00.776Z,50.20
2022-09-04T15:03:34.705Z,50.30
2022-09-04T15:06:12.499Z,48.10
2022-09-04T15:08:42.277Z,48.50
2022-09-04T15:11:31.421Z,50.40
2022-09-04T15:14:06.642Z,50.00
2022-09-04T15:16:49.418Z,50.40
2022-09-04T15:19:45.540Z,50.10
2022-09-04T15:22:23.487Z,51.20
2022-09-04T15:24:58.623Z,52.50
2022-09-04T15:27:32.462Z,53.30
2022-09-04T15:30:06.694Z,53.10
2022-09-04T15:32:36.873Z,53.10
2022-09-04T15:35:14.324Z,52.80
2022-09-04T15:37:48.327Z,52.90
2022-09-04T15:40:27.978Z,53.30
2022-09-04T15:43:08.117Z,52.70
2022-09-04T15:45:43.140Z,52.90
2022-09-04T15:48:25.611Z,53.00
2022-09-04T15:51:05.196Z,52.50
2022-09-04T15:53:37.098Z,52.80
2022-09-04T15:56:09.565Z,53.70
2022-09-04T15:58:46.477Z,53.00
2022-09-04T16:01:17.484Z,52.50
2022-09-04T16:04:01.665Z,52.90
2022-09-04T16:06:32.961Z,52.40
2022-09-04T16:09:06.486Z,51.80
2022-09-04T16:11:38.394Z,52.00
2022-09-04T16:14:08.751Z,51.80
2022-09-04T16:16:42.556Z,51.80
2022-09-04T16:19:27.057Z,51.30
2022-09-04T16:22:05.043Z,51.70
2022-09-04T16:24:40.967Z,50.60
2022-09-04T16:27:12.510Z,50.10
2022-09-04T16:29:45.860Z,49.80
2022-09-04T16:32:20.581Z,51.40
2022-09-04T16:34:52.013Z,50.80
2022-09-04T16:37:25.720Z,50.80
2022-09-04T16:40:12.976Z,50.50
2022-09-04T16:42:47.798Z,50.00
2022-09-04T16:45:20.264Z,49.70
2022-09-04T16:47:56.860Z,49.90
2022-09-04T16:50:35.979Z,50.50
2022-09-04T16:53:14.179Z,51.60
2022-09-04T16:55:52.696Z,51.10
2022-09-04T16:58:40.162Z,53.00
2022-09-04T17:01:15.648Z,51.70
2022-09-04T17:04:12.629Z,51.70
2022-09-04T17:06:47.563Z,51.40
2022-09-04T17:09:21.321Z,51.60
2022-09-04T17:11:55.878Z,51.60
2022-09-04T17:14:30.575Z,51.50
2022-09-04T17:17:29.644Z,51.00
2022-09-04T17:20:09.676Z,51.10
2022-09-04T17:29:03.639Z,50.90
2022-09-04T17:29:11.929Z,51.00
2022-09-04T17:29:18.364Z,51.80
2022-09-04T17:31:36.196Z,50.30
2022-09-04T17:40:12.362Z,51.10
2022-09-04T17:40:42.299Z,49.80
2022-09-04T17:40:50.439Z,51.00
2022-09-04T17:43:23.677Z,50.70
2022-09-04T17:46:05.001Z,50.70
2022-09-04T17:48:38.135Z,50.60
2022-09-04T17:51:07.735Z,51.60
2022-09-04T17:53:38.636Z,51.80
2022-09-04T17:56:13.684Z,51.90
2022-09-04T17:58:46.187Z,52.00
2022-09-04T18:01:20.754Z,53.20
2022-09-04T18:04:20.578Z,53.60
2022-09-04T18:06:55.768Z,53.50
2022-09-04T18:09:31.956Z,53.70
2022-09-04T18:12:11.115Z,54.30
2022-09-04T18:14:47.580Z,54.70
2022-09-04T18:17:44.774Z,55.60
2022-09-04T18:20:22.221Z,56.80
2022-09-04T18:23:15.092Z,58.30
2022-09-04T18:25:50.894Z,59.10
2022-09-04T18:31:11.255Z,59.30
2022-09-04T18:37:17.802Z,61.50
2022-09-04T18:37:19.546Z,60.00
2022-09-04T18:38:11.314Z,61.10
2022-09-04T18:43:18.210Z,61.30
2022-09-04T18:50:28.448Z,61.90
2022-09-04T18:50:31.550Z,61.70
2022-09-04T18:50:50.533Z,62.60
2022-09-04T18:52:15.744Z,62.60
2022-09-04T18:54:49.285Z,62.80
2022-09-04T18:57:27.373Z,63.20
2022-09-04T19:00:08.297Z,63.40
2022-09-04T19:02:53.207Z,63.90
2022-09-04T19:05:24.383Z,64.30
2022-09-04T19:07:55.669Z,64.60
2022-09-04T19:10:26.516Z,64.80
2022-09-04T19:13:02.328Z,64.80
2022-09-04T19:15:55.804Z,65.00
2022-09-04T19:18:30.456Z,65.50
2022-09-04T19:21:23.400Z,65.50
2022-09-04T19:23:54.869Z,65.60
2022-09-04T19:26:26.360Z,66.40
2022-09-04T19:28:56.198Z,66.80
2022-09-04T19:31:35.083Z,67.10
2022-09-04T19:34:12.856Z,67.30
2022-09-04T19:36:44.828Z,67.90
2022-09-04T19:45:57.246Z,68.80
2022-09-04T19:46:16.922Z,69.00
2022-09-04T19:46:25.984Z,69.50
2022-09-04T19:48:20.676Z,70.10
2022-09-04T19:53:22.681Z,70.50
2022-09-04T19:53:51.881Z,70.70
2022-09-04T19:56:31.730Z,71.00
2022-09-04T19:59:05.593Z,71.40
2022-09-04T20:01:44.737Z,72.00
2022-09-04T20:04:24.521Z,72.80
2022-09-04T20:06:59.239Z,73.20
2022-09-04T20:09:33.246Z,73.50
2022-09-04T20:12:12.374Z,73.50
2022-09-04T20:14:43.116Z,73.70
2022-09-04T20:17:25.136Z,73.60
2022-09-04T20:19:57.203Z,73.50
2022-09-04T20:22:33.539Z,73.60
2022-09-04T20:25:26.614Z,74.00
2022-09-04T20:28:00.210Z,74.20
2022-09-04T20:30:29.953Z,75.50
2022-09-04T20:33:02.766Z,75.00
2022-09-04T20:35:41.449Z,75.20
2022-09-04T20:38:22.828Z,75.30
2022-09-04T20:40:55.376Z,75.50
2022-09-04T20:43:31.655Z,75.90
2022-09-04T20:49:35.317Z,76.30
2022-09-04T20:52:52.983Z,76.80
2022-09-04T20:53:00.393Z,77.30
2022-09-04T20:55:09.977Z,77.60
2022-09-04T21:02:48.600Z,78.00
2022-09-04T21:03:19.028Z,78.40
2022-09-04T21:03:56.448Z,78.90
2022-09-04T21:06:31.878Z,79.20
2022-09-04T21:09:17.863Z,79.40
2022-09-04T21:11:50.440Z,79.80
2022-09-04T21:14:27.331Z,80.10
2022-09-04T21:17:35.960Z,80.30
2022-09-04T21:20:23.708Z,80.50
2022-09-04T21:23:09.026Z,81.30
2022-09-04T21:25:47.910Z,80.50
2022-09-04T21:28:54.144Z,80.90
2022-09-04T21:31:49.652Z,81.20
2022-09-04T21:34:43.801Z,81.50
2022-09-04T21:37:19.220Z,81.90
2022-09-04T21:40:30.953Z,82.50
2022-09-04T21:43:40.153Z,83.30
2022-09-04T21:46:21.344Z,83.50
2022-09-04T21:48:57.772Z,83.70
2022-09-04T21:51:57.321Z,84.10
2022-09-04T21:54:37.773Z,84.30
2022-09-04T22:02:27.113Z,84.40
2022-09-04T22:02:43.089Z,84.80
2022-09-04T22:04:08.837Z,85.50
2022-09-04T22:10:11.952Z,85.60
2022-09-04T22:13:31.246Z,85.70
2022-09-04T22:13:38.858Z,85.90
2022-09-04T22:15:59.387Z,86.50
2022-09-04T22:18:47.443Z,86.10
2022-09-04T22:21:38.434Z,86.30
2022-09-04T22:24:36.316Z,86.50
2022-09-04T22:27:29.396Z,86.90
2022-09-04T22:30:08.090Z,87.50
2022-09-04T22:33:14.543Z,87.30
2022-09-04T22:36:06.808Z,87.50
2022-09-04T22:39:03.846Z,88.90
2022-09-04T22:41:48.577Z,88.60
2022-09-04T22:44:26.379Z,88.70
2022-09-04T22:47:27.273Z,89.00
2022-09-04T22:50:18.918Z,89.10
2022-09-04T22:53:04.872Z,89.00
2022-09-04T22:56:22.820Z,89.10
2022-09-04T22:59:20.470Z,89.10
2022-09-04T23:02:00.126Z,89.50
2022-09-04T23:04:58.993Z,90.00
2022-09-04T23:13:53.495Z,90.00
2022-09-04T23:13:56.345Z,90.10
2022-09-04T23:14:20.222Z,90.10
2022-09-04T23:17:01.208Z,90.50
2022-09-04T23:23:12.506Z,90.80
2022-09-04T23:26:35.820Z,90.90
2022-09-04T23:26:48.653Z,91.10
2022-09-04T23:29:32.072Z,91.30
2022-09-04T23:32:32.196Z,91.40
2022-09-04T23:35:15.577Z,91.50
2022-09-04T23:38:12.291Z,91.70
2022-09-04T23:40:42.895Z,91.80
2022-09-04T23:43:45.753Z,91.80
2022-09-04T23:46:49.471Z,91.80
2022-09-04T23:49:53.871Z,92.10
2022-09-04T23:52:31.948Z,92.30
2022-09-04T23:55:37.280Z,92.30
2022-09-04T23:58:52.251Z,92.40
